createdAt,value
2022-12-24T00:00:06.976Z,29.30
2022-12-24T00:02:33.804Z,29.85
2022-12-24T00:05:01.287Z,34.63
2022-12-24T00:07:28.983Z,24.08
2022-12-24T00:09:55.639Z,38.30
2022-12-24T00:12:22.392Z,27.17
2022-12-24T00:14:48.887Z,32.55
2022-12-24T00:17:15.563Z,31.30
2022-12-24T00:19:43.220Z,31.65
2022-12-24T00:22:10.009Z,26.27
2022-12-24T00:24:36.535Z,32.30
2022-12-24T00:27:03.579Z,24.58
2022-12-24T00:29:30.152Z,26.23
2022-12-24T00:31:56.714Z,42.03
2022-12-24T00:34:24.696Z,31.10
2022-12-24T00:36:51.612Z,37.08
2022-12-24T00:39:18.696Z,37.42
2022-12-24T00:41:45.238Z,29.63
2022-12-24T00:44:11.902Z,32.20
2022-12-24T00:46:40.940Z,37.95
2022-12-24T00:49:08.576Z,30.88
2022-12-24T00:51:35.966Z,36.78
2022-12-24T00:54:03.333Z,48.35
2022-12-24T00:56:30.295Z,37.70
2022-12-24T00:58:57.134Z,38.22
2022-12-24T01:01:24.857Z,38.47
2022-12-24T01:03:52.283Z,34.70
2022-12-24T01:06:21.736Z,35.88
2022-12-24T01:08:51.368Z,32.13
2022-12-24T01:11:18.167Z,33.33
2022-12-24T01:13:44.709Z,31.63
2022-12-24T01:16:17.868Z,33.80
2022-12-24T01:18:44.561Z,34.03
2022-12-24T01:21:11.170Z,36.25
2022-12-24T01:23:37.847Z,37.33
2022-12-24T01:26:05.394Z,31.65
2022-12-24T01:28:33.042Z,27.52
2022-12-24T01:31:00.853Z,39.10
2022-12-24T01:33:30.642Z,38.00
2022-12-24T01:35:57.220Z,35.30
2022-12-24T01:38:23.805Z,41.83
2022-12-24T01:41:08.770Z,31.75
2022-12-24T01:43:35.400Z,37.50
2022-12-24T01:46:05.863Z,33.88
2022-12-24T01:48:47.106Z,34.05
2022-12-24T01:51:30.610Z,29.23
2022-12-24T01:54:10.112Z,33.13
2022-12-24T01:56:42.684Z,35.70
2022-12-24T01:59:13.167Z,35.88
2022-12-24T02:01:39.863Z,23.63
2022-12-24T02:04:19.677Z,31.30
2022-12-24T02:06:46.250Z,32.00
2022-12-24T02:09:12.816Z,31.08
2022-12-24T02:11:43.912Z,23.80
2022-12-24T02:14:12.233Z,27.77
2022-12-24T02:16:50.405Z,30.45
2022-12-24T02:19:42.328Z,40.78
2022-12-24T02:22:17.990Z,36.60
2022-12-24T02:25:02.628Z,32.20
2022-12-24T02:27:55.731Z,32.05
2022-12-24T02:33:02.126Z,36.00
2022-12-24T02:35:44.542Z,38.97
2022-12-24T02:38:22.116Z,34.88
2022-12-24T02:41:10.529Z,39.85
2022-12-24T02:43:41.379Z,33.10
2022-12-24T02:46:12.883Z,30.65
2022-12-24T02:48:42.618Z,38.80
2022-12-24T02:51:11.182Z,34.75
2022-12-24T02:53:39.240Z,39.28
2022-12-24T02:56:23.631Z,39.78
2022-12-24T02:59:34.680Z,35.30
2022-12-24T03:02:04.302Z,29.63
2022-12-24T03:04:44.118Z,46.10
2022-12-24T03:07:21.398Z,41.70
2022-12-24T03:10:18.461Z,25.42
2022-12-24T03:12:50.534Z,33.58
2022-12-24T03:15:21.585Z,36.65
2022-12-24T03:17:51.316Z,32.60
2022-12-24T03:20:22.541Z,25.83
2022-12-24T03:22:50.189Z,37.80
2022-12-24T03:25:17.308Z,43.90
2022-12-24T03:27:44.708Z,38.72
2022-12-24T03:30:14.279Z,32.28
2022-12-24T03:32:41.472Z,32.33
2022-12-24T03:35:09.067Z,33.50
2022-12-24T03:37:35.816Z,43.10
2022-12-24T03:40:05.271Z,35.10
2022-12-24T03:42:31.909Z,40.10
2022-12-24T03:44:58.511Z,34.88
2022-12-24T03:47:25.065Z,38.65
2022-12-24T03:49:52.672Z,39.92
2022-12-24T03:52:19.263Z,34.97
2022-12-24T03:54:45.788Z,35.80
2022-12-24T03:57:12.415Z,46.42
2022-12-24T03:59:38.988Z,37.97
2022-12-24T04:02:05.767Z,38.05
2022-12-24T04:04:33.518Z,43.72
2022-12-24T04:07:00.497Z,45.47
2022-12-24T04:09:27.095Z,32.08
2022-12-24T04:11:53.611Z,39.28
2022-12-24T04:14:20.121Z,37.45
2022-12-24T04:16:46.772Z,42.58
2022-12-24T04:19:13.388Z,43.97
2022-12-24T04:21:39.940Z,34.03
2022-12-24T04:24:06.620Z,42.75
2022-12-24T04:26:33.213Z,30.67
2022-12-24T04:28:59.754Z,29.20
2022-12-24T04:31:26.298Z,39.28
2022-12-24T04:33:53.303Z,35.15
2022-12-24T04:36:20.607Z,42.25
2022-12-24T04:38:48.532Z,36.38
2022-12-24T04:41:23.351Z,31.40
2022-12-24T04:43:53.821Z,34.22
2022-12-24T04:46:26.055Z,39.05
2022-12-24T04:48:54.492Z,37.00
2022-12-24T04:51:21.512Z,45.03
2022-12-24T04:53:48.093Z,31.92
2022-12-24T04:56:20.658Z,31.13
2022-12-24T05:01:18.849Z,32.72
2022-12-24T05:03:46.193Z,30.85
2022-12-24T05:06:17.200Z,35.83
2022-12-24T05:08:43.935Z,33.10
2022-12-24T05:11:14.234Z,27.08
2022-12-24T05:13:46.542Z,25.95
2022-12-24T05:16:15.901Z,38.88
2022-12-24T05:18:42.524Z,32.75
2022-12-24T05:21:11.053Z,28.80
2022-12-24T05:23:56.757Z,31.40
2022-12-24T05:26:34.565Z,24.88
2022-12-24T05:29:03.026Z,33.97
2022-12-24T05:31:31.375Z,23.00
2022-12-24T05:33:58.043Z,33.90
2022-12-24T05:36:24.884Z,30.65
2022-12-24T05:38:51.586Z,35.22
2022-12-24T05:41:18.641Z,36.65
2022-12-24T05:43:46.397Z,32.85
2022-12-24T05:46:15.893Z,33.63
2022-12-24T05:48:42.574Z,33.08
2022-12-24T05:51:12.122Z,30.98
2022-12-24T05:53:39.100Z,30.50
2022-12-24T05:56:18.392Z,37.72
2022-12-24T05:58:45.377Z,33.60
2022-12-24T06:01:12.821Z,19.42
2022-12-24T06:03:39.785Z,29.20
2022-12-24T06:06:09.754Z,21.90
2022-12-24T06:08:37.365Z,39.63
2022-12-24T06:11:07.582Z,32.45
2022-12-24T06:13:35.027Z,33.35
2022-12-24T06:16:03.789Z,35.60
2022-12-24T06:18:32.762Z,21.35
2022-12-24T06:21:00.682Z,33.72
2022-12-24T06:23:29.989Z,34.90
2022-12-24T06:25:59.189Z,26.50
2022-12-24T06:28:25.761Z,35.83
2022-12-24T06:30:57.132Z,35.38
2022-12-24T06:33:27.579Z,26.75
2022-12-24T06:35:54.171Z,29.15
2022-12-24T06:38:20.672Z,27.60
2022-12-24T06:40:47.757Z,33.15
2022-12-24T06:43:15.124Z,29.67
2022-12-24T06:45:48.547Z,36.55
2022-12-24T06:48:15.839Z,35.17
2022-12-24T06:50:42.853Z,31.20
2022-12-24T06:53:10.271Z,45.00
2022-12-24T06:55:37.319Z,28.33
2022-12-24T06:58:04.608Z,29.85
2022-12-24T07:00:31.305Z,35.05
2022-12-24T07:02:58.048Z,41.33
2022-12-24T07:05:24.694Z,36.03
2022-12-24T07:07:51.293Z,32.13
2022-12-24T07:10:19.542Z,34.30
2022-12-24T07:12:46.460Z,29.23
2022-12-24T07:15:13.887Z,30.75
2022-12-24T07:17:40.560Z,36.75
2022-12-24T07:20:12.245Z,33.97
2022-12-24T07:22:38.766Z,29.92
2022-12-24T07:25:05.776Z,36.95
2022-12-24T07:27:32.358Z,34.47
2022-12-24T07:29:58.867Z,33.17
2022-12-24T07:32:25.404Z,33.78
2022-12-24T07:34:51.963Z,41.50
2022-12-24T07:37:18.503Z,26.88
2022-12-24T07:39:45.289Z,34.55
2022-12-24T07:42:11.885Z,30.17
2022-12-24T07:44:39.567Z,36.03
2022-12-24T07:47:06.213Z,30.05
2022-12-24T07:49:32.831Z,33.88
2022-12-24T07:51:59.419Z,32.47
2022-12-24T07:54:26.067Z,36.65
2022-12-24T07:56:52.652Z,32.80
2022-12-24T07:59:19.154Z,22.40
2022-12-24T08:01:46.489Z,28.52
2022-12-24T08:04:13.531Z,41.70
2022-12-24T08:06:40.244Z,39.78
2022-12-24T08:09:07.126Z,39.88
2022-12-24T08:11:33.755Z,34.65
2022-12-24T08:14:00.274Z,29.20
2022-12-24T08:16:26.913Z,30.05
2022-12-24T08:18:53.478Z,29.38
2022-12-24T08:21:19.991Z,36.40
2022-12-24T08:23:47.692Z,39.53
2022-12-24T08:26:15.612Z,32.17
2022-12-24T08:28:42.498Z,26.55
2022-12-24T08:31:09.229Z,32.63
2022-12-24T08:33:35.882Z,40.83
2022-12-24T08:36:03.043Z,31.58
2022-12-24T08:38:29.567Z,45.20
2022-12-24T08:40:56.152Z,35.80
2022-12-24T08:43:23.416Z,42.67
2022-12-24T08:45:50.341Z,38.05
2022-12-24T08:48:17.311Z,34.42
2022-12-24T08:50:44.310Z,36.80
2022-12-24T08:53:11.041Z,35.67
2022-12-24T08:55:37.745Z,35.10
2022-12-24T08:58:04.465Z,41.97
2022-12-24T09:00:31.074Z,32.17
2022-12-24T09:02:58.045Z,33.45
2022-12-24T09:05:25.959Z,36.25
2022-12-24T09:07:52.698Z,30.48
2022-12-24T09:10:19.281Z,33.88
2022-12-24T09:12:45.775Z,27.58
2022-12-24T09:15:14.095Z,37.22
2022-12-24T09:17:41.102Z,38.90
2022-12-24T09:20:08.694Z,41.38
2022-12-24T09:22:37.387Z,37.50
2022-12-24T09:25:06.180Z,37.95
2022-12-24T09:27:32.945Z,32.63
2022-12-24T09:29:59.480Z,31.20
2022-12-24T09:32:25.993Z,28.95
2022-12-24T09:34:52.530Z,28.88
2022-12-24T09:37:19.362Z,36.97
2022-12-24T09:39:45.833Z,25.52
2022-12-24T09:42:27.918Z,32.60
2022-12-24T09:45:01.379Z,40.20
2022-12-24T09:47:52.763Z,32.42
2022-12-24T09:50:37.963Z,32.15
2022-12-24T09:53:12.971Z,28.48
2022-12-24T09:55:51.957Z,37.00
2022-12-24T09:58:34.949Z,32.17
2022-12-24T10:01:01.654Z,33.58
2022-12-24T10:03:28.447Z,35.03
2022-12-24T10:06:27.019Z,34.20
2022-12-24T10:09:01.813Z,34.15
2022-12-24T10:14:16.500Z,32.60
2022-12-24T10:16:58.447Z,28.40
2022-12-24T10:20:07.532Z,29.33
2022-12-24T10:23:07.941Z,25.25
2022-12-24T10:25:43.192Z,29.30
2022-12-24T10:28:22.040Z,39.25
2022-12-24T10:30:53.894Z,30.80
2022-12-24T10:33:32.914Z,26.95
2022-12-24T10:35:59.544Z,25.98
2022-12-24T10:38:26.803Z,35.58
2022-12-24T10:40:56.379Z,35.38
2022-12-24T10:43:25.325Z,31.92
2022-12-24T10:45:56.700Z,34.80
2022-12-24T10:48:35.181Z,27.08
2022-12-24T10:51:21.903Z,29.40
2022-12-24T10:53:51.456Z,26.23
2022-12-24T10:56:20.387Z,33.25
2022-12-24T10:58:53.967Z,29.65
2022-12-24T11:01:41.525Z,30.40
2022-12-24T11:04:17.024Z,27.25
2022-12-24T11:07:01.543Z,33.20
2022-12-24T11:09:39.391Z,30.10
2022-12-24T11:12:15.514Z,31.08
2022-12-24T11:14:42.627Z,45.33
2022-12-24T11:17:20.664Z,28.65
2022-12-24T11:19:49.640Z,31.67
2022-12-24T11:22:24.736Z,33.45
2022-12-24T11:25:19.773Z,27.98
2022-12-24T11:27:51.706Z,33.70
2022-12-24T11:30:23.095Z,33.65
2022-12-24T11:33:09.848Z,32.60
2022-12-24T11:35:45.052Z,30.77
2022-12-24T11:38:17.704Z,32.53
2022-12-24T11:40:47.568Z,39.75
2022-12-24T11:43:18.038Z,24.42
2022-12-24T11:45:51.107Z,33.38
2022-12-24T11:48:34.756Z,33.40
2022-12-24T11:51:07.376Z,27.80
2022-12-24T11:56:47.265Z,24.13
2022-12-24T11:59:33.974Z,25.15
2022-12-24T12:02:15.556Z,26.70
2022-12-24T12:04:46.013Z,28.15
2022-12-24T12:07:18.045Z,26.73
2022-12-24T12:09:50.561Z,30.38
2022-12-24T12:12:28.767Z,26.35
2022-12-24T12:15:00.702Z,28.48
2022-12-24T12:17:43.808Z,30.05
2022-12-24T12:20:31.223Z,25.83
2022-12-24T12:23:03.861Z,23.00
2022-12-24T12:28:13.796Z,19.67
2022-12-24T12:30:41.048Z,25.17
2022-12-24T12:33:21.360Z,30.95
2022-12-24T12:35:49.017Z,23.83
2022-12-24T12:38:22.812Z,26.33
2022-12-24T12:41:05.463Z,24.60
2022-12-24T12:44:04.112Z,24.02
2022-12-24T12:46:54.892Z,25.00
2022-12-24T12:49:52.554Z,23.48
2022-12-24T12:52:37.829Z,28.50
2022-12-24T12:55:24.328Z,19.08
2022-12-24T12:57:56.230Z,23.63
2022-12-24T13:00:23.616Z,32.45
2022-12-24T13:03:12.519Z,20.65
2022-12-24T13:06:06.976Z,26.52
2022-12-24T13:09:09.240Z,21.45
2022-12-24T13:11:52.524Z,23.33
2022-12-24T13:14:27.950Z,20.90
2022-12-24T13:17:17.140Z,18.88
2022-12-24T13:20:05.275Z,26.00
2022-12-24T13:22:31.882Z,21.15
2022-12-24T13:24:58.499Z,27.65
2022-12-24T13:27:28.670Z,30.77
2022-12-24T13:30:06.957Z,22.42
2022-12-24T13:32:47.001Z,21.08
2022-12-24T13:35:19.541Z,16.85
2022-12-24T13:40:21.864Z,22.65
2022-12-24T13:42:58.489Z,24.85
2022-12-24T13:45:34.252Z,23.90
2022-12-24T13:48:22.228Z,26.45
2022-12-24T13:50:52.807Z,23.90
2022-12-24T13:53:32.501Z,26.45
2022-12-24T13:56:29.983Z,22.35
2022-12-24T13:59:17.050Z,21.90
2022-12-24T14:01:44.940Z,19.25
2022-12-24T14:04:24.637Z,26.73
2022-12-24T14:06:54.397Z,23.83
2022-12-24T14:09:25.006Z,23.70
2022-12-24T14:12:03.700Z,22.92
2022-12-24T14:14:36.204Z,22.05
2022-12-24T14:17:26.815Z,21.13
2022-12-24T14:19:59.449Z,18.98
2022-12-24T14:24:59.007Z,20.38
2022-12-24T14:27:38.961Z,28.10
2022-12-24T14:30:20.533Z,22.67
2022-12-24T14:32:48.150Z,24.25
2022-12-24T14:35:23.293Z,20.92
2022-12-24T14:38:00.436Z,20.02
2022-12-24T14:40:30.001Z,15.88
2022-12-24T14:43:14.083Z,27.02
2022-12-24T14:45:48.730Z,23.63
2022-12-24T14:48:27.114Z,25.63
2022-12-24T14:51:12.648Z,17.92
2022-12-24T14:53:54.306Z,26.98
2022-12-24T14:56:22.552Z,30.23
2022-12-24T14:58:49.849Z,20.95
2022-12-24T15:01:26.754Z,24.33
2022-12-24T15:04:11.614Z,18.80
2022-12-24T15:06:41.981Z,19.20
2022-12-24T15:09:19.373Z,23.27
2022-12-24T15:11:48.323Z,15.95
2022-12-24T15:14:17.152Z,15.32
2022-12-24T15:17:02.776Z,22.00
2022-12-24T15:19:35.821Z,15.20
2022-12-24T15:22:04.025Z,16.13
2022-12-24T15:24:36.454Z,16.05
2022-12-24T15:27:17.265Z,16.65
2022-12-24T15:29:46.730Z,12.13
2022-12-24T15:32:15.830Z,14.88
2022-12-24T15:34:47.918Z,18.70
2022-12-24T15:37:37.105Z,27.73
2022-12-24T15:40:19.502Z,22.42
2022-12-24T15:42:46.377Z,23.00
2022-12-24T15:45:23.200Z,17.98
2022-12-24T15:47:57.495Z,17.15
2022-12-24T15:50:35.580Z,19.27
2022-12-24T15:53:24.743Z,18.73
2022-12-24T15:56:06.653Z,18.67
2022-12-24T15:58:36.205Z,18.03
2022-12-24T16:01:28.220Z,17.63
2022-12-24T16:03:58.332Z,16.08
2022-12-24T16:06:25.776Z,15.45
2022-12-24T16:08:52.286Z,23.05
2022-12-24T16:11:24.702Z,17.48
2022-12-24T16:13:51.171Z,12.07
2022-12-24T16:16:31.325Z,20.98
2022-12-24T16:18:59.724Z,16.33
2022-12-24T16:21:31.704Z,9.82
2022-12-24T16:24:26.511Z,19.17
2022-12-24T16:26:53.745Z,13.48
2022-12-24T16:29:20.529Z,15.80
2022-12-24T16:31:51.470Z,14.68
2022-12-24T16:34:18.504Z,17.45
2022-12-24T16:36:46.367Z,14.45
2022-12-24T16:39:24.982Z,15.38
2022-12-24T16:42:11.576Z,27.00
2022-12-24T16:44:38.716Z,20.58
2022-12-24T16:47:24.135Z,22.65
2022-12-24T16:49:51.258Z,29.15
2022-12-24T16:52:23.681Z,34.17
2022-12-24T16:54:50.666Z,25.52
2022-12-24T16:57:17.631Z,22.58
2022-12-24T16:59:44.556Z,26.27
2022-12-24T17:02:14.911Z,21.70
2022-12-24T17:04:42.798Z,25.25
2022-12-24T17:07:14.078Z,25.70
2022-12-24T17:09:41.038Z,27.65
2022-12-24T17:12:07.852Z,14.55
2022-12-24T17:14:34.416Z,19.70
2022-12-24T17:17:00.932Z,19.40
2022-12-24T17:19:27.403Z,21.75
2022-12-24T17:21:53.845Z,20.65
2022-12-24T17:24:20.321Z,17.08
2022-12-24T17:26:46.795Z,29.17
2022-12-24T17:29:13.318Z,38.80
2022-12-24T17:31:40.774Z,30.33
2022-12-24T17:34:07.374Z,26.35
2022-12-24T17:36:34.487Z,28.40
2022-12-24T17:39:01.111Z,24.83
2022-12-24T17:41:27.740Z,30.10
2022-12-24T17:43:54.285Z,23.30
2022-12-24T17:46:22.805Z,60.42
2022-12-24T17:48:52.845Z,48.35
2022-12-24T17:51:22.565Z,85.15
2022-12-24T17:53:50.265Z,101.60
2022-12-24T17:56:17.605Z,180.05
2022-12-24T17:58:45.675Z,248.60
2022-12-24T18:01:18.555Z,124.03
2022-12-24T18:03:46.000Z,75.18
2022-12-24T18:06:13.558Z,38.58
2022-12-24T18:08:41.516Z,33.10
2022-12-24T18:11:20.077Z,31.15
2022-12-24T18:13:47.817Z,31.35
2022-12-24T18:16:14.333Z,49.03
2022-12-24T18:18:40.874Z,46.28
2022-12-24T18:21:07.447Z,33.38
2022-12-24T18:23:33.963Z,28.17
2022-12-24T18:26:05.677Z,30.02
2022-12-24T18:28:32.655Z,37.10
2022-12-24T18:31:08.471Z,33.55
2022-12-24T18:33:36.014Z,32.72
2022-12-24T18:36:03.197Z,34.08
2022-12-24T18:38:30.283Z,34.65
2022-12-24T18:41:02.726Z,32.15
2022-12-24T18:43:29.257Z,32.28
2022-12-24T18:45:55.744Z,27.35
2022-12-24T18:48:22.278Z,29.05
2022-12-24T18:50:55.443Z,27.67
2022-12-24T18:53:21.952Z,34.67
2022-12-24T18:55:48.448Z,22.20
2022-12-24T18:58:14.937Z,29.83
2022-12-24T19:00:41.475Z,27.02
2022-12-24T19:03:08.182Z,28.45
2022-12-24T19:05:35.258Z,30.92
2022-12-24T19:08:10.966Z,26.05
2022-12-24T19:10:48.414Z,36.33
2022-12-24T19:13:14.925Z,20.85
2022-12-24T19:15:41.969Z,27.88
2022-12-24T19:18:08.515Z,24.77
2022-12-24T19:20:38.568Z,26.85
2022-12-24T19:23:06.877Z,25.70
2022-12-24T19:25:34.268Z,20.17
2022-12-24T19:28:01.720Z,30.30
2022-12-24T19:30:28.224Z,24.98
2022-12-24T19:32:54.678Z,30.38
2022-12-24T19:35:21.170Z,26.27
2022-12-24T19:37:47.647Z,39.70
2022-12-24T19:40:14.247Z,28.40
2022-12-24T19:42:40.751Z,25.17
2022-12-24T19:45:08.265Z,33.97
2022-12-24T19:47:34.717Z,23.85
2022-12-24T19:50:01.170Z,29.50
2022-12-24T19:52:27.638Z,33.80
2022-12-24T19:54:54.143Z,30.63
2022-12-24T19:57:20.812Z,25.27
2022-12-24T19:59:47.252Z,30.38
2022-12-24T20:02:13.961Z,27.75
2022-12-24T20:04:40.721Z,32.70
2022-12-24T20:07:07.327Z,28.65
2022-12-24T20:09:34.011Z,35.63
2022-12-24T20:12:01.053Z,27.77
2022-12-24T20:14:28.580Z,36.33
2022-12-24T20:16:55.474Z,26.58
2022-12-24T20:19:22.363Z,34.55
2022-12-24T20:21:48.951Z,27.92
2022-12-24T20:24:15.626Z,26.38
2022-12-24T20:26:42.391Z,32.97
2022-12-24T20:29:10.604Z,36.30
2022-12-24T20:31:38.030Z,34.97
2022-12-24T20:34:07.279Z,36.20
2022-12-24T20:36:34.816Z,25.25
2022-12-24T20:39:01.545Z,27.38
2022-12-24T20:41:29.721Z,24.75
2022-12-24T20:44:00.795Z,20.05
2022-12-24T20:46:27.892Z,27.83
2022-12-24T20:48:55.591Z,24.65
2022-12-24T20:51:25.342Z,24.23
2022-12-24T20:53:53.728Z,25.83
2022-12-24T20:56:20.811Z,30.02
2022-12-24T20:58:47.896Z,27.13
2022-12-24T21:01:20.751Z,28.30
2022-12-24T21:03:47.741Z,27.85
2022-12-24T21:06:17.666Z,26.08
2022-12-24T21:08:45.507Z,24.13
2022-12-24T21:11:30.631Z,30.92
2022-12-24T21:13:57.172Z,52.10
2022-12-24T21:16:23.860Z,32.15
2022-12-24T21:18:50.517Z,25.98
2022-12-24T21:21:17.594Z,27.83
2022-12-24T21:23:44.257Z,29.52
2022-12-24T21:26:10.872Z,32.85
2022-12-24T21:28:37.416Z,28.92
2022-12-24T21:31:10.330Z,36.10
2022-12-24T21:33:38.459Z,31.70
2022-12-24T21:36:06.446Z,25.05
2022-12-24T21:38:33.714Z,28.45
2022-12-24T21:41:09.609Z,31.08
2022-12-24T21:43:37.060Z,39.83
2022-12-24T21:46:12.023Z,32.35
2022-12-24T21:48:57.701Z,38.17
2022-12-24T21:51:25.510Z,34.42
2022-12-24T21:54:10.798Z,39.38
2022-12-24T21:56:57.595Z,28.00
2022-12-24T21:59:27.089Z,38.22
2022-12-24T22:01:54.687Z,27.65
2022-12-24T22:04:21.384Z,35.20
2022-12-24T22:07:06.437Z,31.33
2022-12-24T22:09:51.620Z,24.63
2022-12-24T22:12:18.309Z,30.15
2022-12-24T22:14:44.988Z,30.45
2022-12-24T22:17:11.548Z,33.90
2022-12-24T22:19:38.083Z,31.05
2022-12-24T22:22:04.632Z,21.25
2022-12-24T22:24:31.121Z,21.27
2022-12-24T22:26:57.936Z,35.53
2022-12-24T22:29:24.859Z,31.35
2022-12-24T22:31:51.390Z,29.23
2022-12-24T22:34:17.883Z,28.30
2022-12-24T22:36:44.321Z,34.22
2022-12-24T22:39:10.813Z,30.48
2022-12-24T22:41:37.312Z,25.85
2022-12-24T22:44:03.886Z,29.60
2022-12-24T22:46:30.413Z,33.10
2022-12-24T22:48:56.933Z,25.88
2022-12-24T22:51:23.498Z,24.27
2022-12-24T22:53:50.298Z,26.73
2022-12-24T22:56:20.946Z,23.35
2022-12-24T22:58:54.398Z,38.20
2022-12-24T23:01:35.266Z,27.35
2022-12-24T23:04:02.406Z,21.80
2022-12-24T23:06:29.352Z,29.80
2022-12-24T23:08:55.915Z,20.10
2022-12-24T23:11:22.545Z,26.38
2022-12-24T23:14:07.624Z,21.73
2022-12-24T23:16:34.162Z,25.73
2022-12-24T23:19:01.993Z,22.98
2022-12-24T23:21:29.336Z,15.40
2022-12-24T23:24:00.519Z,18.42
2022-12-24T23:26:28.794Z,16.70
2022-12-24T23:28:56.134Z,20.05
2022-12-24T23:31:23.810Z,18.83
2022-12-24T23:33:50.512Z,26.05
2022-12-24T23:36:17.580Z,23.38
2022-12-24T23:38:44.152Z,32.67
2022-12-24T23:41:11.466Z,25.00
2022-12-24T23:43:38.164Z,22.67
2022-12-24T23:46:04.976Z,21.92
2022-12-24T23:48:31.472Z,37.33
2022-12-24T23:51:06.858Z,30.88
2022-12-24T23:53:33.550Z,29.98
2022-12-24T23:56:00.355Z,26.95
2022-12-24T23:58:27.263Z,31.35
